Time;durP1;ratioP1;P1;durP2;ratioP2;P2;SDS_P1;SDS_P2;PMS_P1;PMS_P2;Temp;Humidity;BMP_temperature;BMP_pressure;BME280_temperature;BME280_humidity;BME280_pressure;Samples;Min_cycle;Max_cycle;Signal;HPM_P1;HPM_P2
2020/12/22 00:00:47;;;;;;;32.35;17.83;;;12.20;99.90;;;;;;4768974;30;20084;-77
2020/12/22 00:03:13;;;;;;;33.03;17.88;;;12.20;99.90;;;;;;4784655;30;20074;-78
2020/12/22 00:05:39;;;;;;;31.40;17.92;;;12.20;99.90;;;;;;4784917;30;20065;-77
2020/12/22 00:08:12;;;;;;;35.53;19.23;;;12.20;99.90;;;;;;4780057;29;20122;-78
2020/12/22 00:10:38;;;;;;;35.83;19.52;;;12.20;99.90;;;;;;4791110;29;20045;-77
2020/12/22 00:13:04;;;;;;;31.30;17.23;;;12.10;99.90;;;;;;4790160;29;20039;-76
2020/12/22 00:15:30;;;;;;;33.53;19.17;;;12.10;99.90;;;;;;4790959;29;20043;-77
2020/12/22 00:17:57;;;;;;;36.95;19.65;;;12.00;99.90;;;;;;4771758;29;20039;-77
2020/12/22 00:20:23;;;;;;;35.95;20.20;;;11.90;99.90;;;;;;4792803;29;20057;-77
2020/12/22 00:22:51;;;;;;;35.33;19.63;;;11.90;99.90;;;;;;4788407;29;20042;-77
2020/12/22 00:25:17;;;;;;;37.45;20.98;;;11.90;99.90;;;;;;4791178;29;20043;-77
2020/12/22 00:27:47;;;;;;;43.28;22.98;;;11.90;99.90;;;;;;4776322;29;20027;-77
2020/12/22 00:30:13;;;;;;;39.53;22.30;;;11.90;99.90;;;;;;4788587;29;20493;-76
2020/12/22 00:32:39;;;;;;;42.40;23.67;;;11.90;99.90;;;;;;4792698;29;20039;-77
2020/12/22 00:35:05;;;;;;;44.25;24.70;;;11.90;99.90;;;;;;4789764;29;20031;-76
2020/12/22 00:37:31;;;;;;;39.33;21.90;;;11.80;99.90;;;;;;4792215;29;20939;-77
2020/12/22 00:39:58;;;;;;;44.28;23.27;;;11.80;99.90;;;;;;4780554;29;20030;-77
2020/12/22 00:42:24;;;;;;;42.60;22.52;;;11.80;99.90;;;;;;4790141;29;20506;-77
2020/12/22 00:44:50;;;;;;;40.95;23.48;;;11.80;99.90;;;;;;4791377;29;20106;-77
2020/12/22 00:47:16;;;;;;;41.55;24.48;;;11.80;99.90;;;;;;4799740;29;20038;-76
2020/12/22 00:49:42;;;;;;;44.30;23.60;;;11.80;99.90;;;;;;4774503;30;20567;-77
2020/12/22 00:52:08;;;;;;;44.40;23.27;;;11.80;99.90;;;;;;4784087;30;20035;-76
2020/12/22 00:54:34;;;;;;;38.67;21.85;;;11.80;99.90;;;;;;4780236;29;20129;-76
2020/12/22 00:57:02;;;;;;;40.95;21.80;;;11.90;99.90;;;;;;4773180;29;20047;-77
2020/12/22 00:59:45;;;;;;;41.10;22.15;;;11.90;99.90;;;;;;4771730;29;20039;-76
2020/12/22 01:02:11;;;;;;;37.28;20.23;;;12.00;99.90;;;;;;4792357;29;20073;-76
2020/12/22 01:04:37;;;;;;;43.40;20.80;;;12.00;99.90;;;;;;4791668;29;20039;-77
2020/12/22 01:07:03;;;;;;;38.80;21.15;;;12.10;99.90;;;;;;4794207;29;20028;-77
2020/12/22 01:09:29;;;;;;;36.33;20.83;;;12.20;99.90;;;;;;4791512;29;20499;-76
2020/12/22 01:11:55;;;;;;;37.33;20.65;;;12.20;99.90;;;;;;4789370;29;20061;-77
2020/12/22 01:14:21;;;;;;;37.72;21.35;;;12.20;99.90;;;;;;4791938;29;20059;-77
2020/12/22 01:16:47;;;;;;;38.35;19.48;;;12.30;99.90;;;;;;4764942;30;20050;-76
2020/12/22 01:19:13;;;;;;;34.60;20.23;;;12.30;99.90;;;;;;4789779;29;20023;-76
2020/12/22 01:21:40;;;;;;;34.20;19.35;;;12.30;99.90;;;;;;4787597;29;20058;-77
2020/12/22 01:24:06;;;;;;;34.78;19.38;;;12.30;99.90;;;;;;4787954;29;20038;-76
2020/12/22 01:26:32;;;;;;;33.20;18.38;;;12.30;99.90;;;;;;4793114;29;20038;-76
2020/12/22 01:28:59;;;;;;;35.35;20.33;;;12.30;99.90;;;;;;4788067;29;20053;-77
2020/12/22 01:31:27;;;;;;;35.03;20.40;;;12.30;99.90;;;;;;4785644;29;20414;-77
2020/12/22 01:33:54;;;;;;;33.92;18.58;;;12.20;99.90;;;;;;4790484;29;20023;-76
2020/12/22 01:36:21;;;;;;;34.15;17.10;;;12.20;99.90;;;;;;4764985;29;20043;-77
2020/12/22 01:38:48;;;;;;;30.95;18.98;;;12.30;99.90;;;;;;4794355;29;20043;-76
2020/12/22 01:41:15;;;;;;;35.20;20.17;;;12.30;99.90;;;;;;4789932;29;20062;-76
2020/12/22 01:43:42;;;;;;;35.28;20.40;;;12.40;99.90;;;;;;4777919;29;20512;-77
2020/12/22 01:46:08;;;;;;;39.70;22.33;;;12.40;99.90;;;;;;4778058;29;20053;-76
2020/12/22 01:48:37;;;;;;;37.38;20.60;;;12.40;99.90;;;;;;4793306;29;20486;-77
2020/12/22 01:51:05;;;;;;;38.08;22.35;;;12.40;99.90;;;;;;4792883;29;20041;-77
2020/12/22 01:53:31;;;;;;;37.83;20.73;;;12.30;99.90;;;;;;4781005;29;20387;-77
2020/12/22 01:55:57;;;;;;;43.75;21.13;;;12.40;99.90;;;;;;4793148;29;20049;-76
2020/12/22 01:58:23;;;;;;;39.13;20.60;;;12.40;99.90;;;;;;4794939;29;20043;-76
2020/12/22 02:00:49;;;;;;;38.03;22.02;;;12.40;99.90;;;;;;4794902;29;20533;-76
2020/12/22 02:03:15;;;;;;;36.67;20.95;;;12.30;99.90;;;;;;4790576;29;20030;-77
2020/12/22 02:05:41;;;;;;;36.17;21.10;;;12.30;99.90;;;;;;4794070;29;20535;-76
2020/12/22 02:08:10;;;;;;;38.30;20.85;;;12.30;99.90;;;;;;4783344;29;20371;-76
2020/12/22 02:10:51;;;;;;;32.80;18.67;;;12.20;99.90;;;;;;4775620;29;20046;-77
2020/12/22 02:13:17;;;;;;;34.08;20.40;;;12.20;99.90;;;;;;4789469;29;20039;-76
2020/12/22 02:15:43;;;;;;;33.78;19.35;;;12.30;99.90;;;;;;4793293;29;20046;-77
2020/12/22 02:18:09;;;;;;;32.03;19.02;;;12.30;99.90;;;;;;4792673;29;20507;-76
2020/12/22 02:20:37;;;;;;;33.90;19.88;;;12.20;99.90;;;;;;4792414;29;20114;-76
2020/12/22 02:23:03;;;;;;;36.88;20.73;;;12.20;99.90;;;;;;4795108;29;20551;-77
2020/12/22 02:25:29;;;;;;;38.35;21.58;;;12.20;99.90;;;;;;4793715;29;20041;-77
2020/12/22 02:27:55;;;;;;;32.97;19.80;;;12.20;99.90;;;;;;4797108;29;20034;-76
2020/12/22 02:30:21;;;;;;;34.83;20.15;;;12.10;99.90;;;;;;4790390;29;20031;-76
2020/12/22 02:32:47;;;;;;;36.45;20.98;;;12.10;99.90;;;;;;4792324;29;20467;-75
2020/12/22 02:35:13;;;;;;;36.38;20.52;;;12.10;99.90;;;;;;4776130;29;20039;-77
2020/12/22 02:37:39;;;;;;;37.28;21.23;;;12.10;99.90;;;;;;4791470;29;20410;-77
2020/12/22 02:40:05;;;;;;;38.10;21.85;;;12.10;99.90;;;;;;4793328;29;20073;-76
2020/12/22 02:42:31;;;;;;;36.40;22.05;;;12.10;99.90;;;;;;4790089;29;20027;-77
2020/12/22 02:44:57;;;;;;;30.45;18.60;;;12.10;99.90;;;;;;4791998;29;20122;-77
2020/12/22 02:47:23;;;;;;;31.75;18.27;;;12.10;99.90;;;;;;4794284;29;20528;-77
2020/12/22 02:49:49;;;;;;;35.65;18.95;;;12.10;99.90;;;;;;4791278;29;20031;-76
2020/12/22 02:52:15;;;;;;;35.10;19.25;;;12.10;99.90;;;;;;4792665;29;20042;-77
2020/12/22 02:54:41;;;;;;;33.08;19.23;;;12.10;99.90;;;;;;4794370;29;20103;-76
2020/12/22 02:57:07;;;;;;;34.65;19.00;;;12.10;99.90;;;;;;4790300;29;20043;-77
2020/12/22 02:59:33;;;;;;;34.38;17.60;;;12.10;99.90;;;;;;4770166;29;20394;-76
2020/12/22 03:01:59;;;;;;;31.10;17.02;;;12.20;99.90;;;;;;4788019;29;20027;-77
2020/12/22 03:04:25;;;;;;;29.52;17.85;;;12.20;99.90;;;;;;4792967;29;20042;-76
2020/12/22 03:06:51;;;;;;;31.08;17.90;;;12.20;99.90;;;;;;4793988;29;20081;-76
2020/12/22 03:09:17;;;;;;;30.40;16.13;;;12.20;99.90;;;;;;4787490;29;20043;-77
2020/12/22 03:11:44;;;;;;;28.25;16.63;;;12.20;99.90;;;;;;4787407;29;20027;-77
2020/12/22 03:14:10;;;;;;;26.08;15.52;;;12.20;99.90;;;;;;4781852;29;20038;-76
2020/12/22 03:16:36;;;;;;;26.35;15.20;;;12.30;99.90;;;;;;4791491;29;20043;-77
2020/12/22 03:19:02;;;;;;;24.23;14.07;;;12.20;99.90;;;;;;4791577;29;20027;-77
2020/12/22 03:21:28;;;;;;;23.27;13.15;;;12.20;99.90;;;;;;4787025;29;20089;-77
2020/12/22 03:23:54;;;;;;;23.67;13.35;;;12.20;99.90;;;;;;4793376;29;20024;-77
2020/12/22 03:26:20;;;;;;;22.20;13.57;;;12.20;99.90;;;;;;4773337;29;20054;-76
2020/12/22 03:28:46;;;;;;;24.30;13.27;;;12.20;99.90;;;;;;4792984;29;20080;-78
2020/12/22 03:31:12;;;;;;;26.38;13.85;;;12.20;99.90;;;;;;4789115;29;20045;-77
2020/12/22 03:33:38;;;;;;;20.38;12.68;;;12.20;99.90;;;;;;4788310;29;20027;-77
2020/12/22 03:36:04;;;;;;;23.45;14.23;;;12.30;99.90;;;;;;4791876;29;20042;-76
2020/12/22 03:38:30;;;;;;;25.38;14.45;;;12.30;99.90;;;;;;4792338;29;20059;-77
2020/12/22 03:40:56;;;;;;;25.33;15.18;;;12.30;99.90;;;;;;4790055;29;20027;-77
2020/12/22 03:43:22;;;;;;;24.55;14.73;;;12.30;99.90;;;;;;4788928;29;20078;-77
2020/12/22 03:45:49;;;;;;;26.27;15.45;;;12.30;99.90;;;;;;4790708;29;20026;-77
2020/12/22 03:48:15;;;;;;;22.27;13.27;;;12.30;99.90;;;;;;4791033;29;20509;-77
2020/12/22 03:50:41;;;;;;;25.63;13.52;;;12.30;99.90;;;;;;4774920;29;20023;-77
2020/12/22 03:53:07;;;;;;;25.90;13.02;;;12.30;99.90;;;;;;4788910;29;20114;-76
2020/12/22 03:55:33;;;;;;;24.58;13.90;;;12.30;99.90;;;;;;4778675;30;20059;-77
2020/12/22 03:57:59;;;;;;;27.30;14.52;;;12.30;99.90;;;;;;4775737;29;20055;-76
2020/12/22 04:00:25;;;;;;;22.33;13.20;;;12.30;99.90;;;;;;4767253;30;20070;-78
2020/12/22 04:02:51;;;;;;;23.65;13.45;;;12.20;99.90;;;;;;4766943;30;20043;-77
2020/12/22 04:05:17;;;;;;;17.75;11.02;;;12.20;99.90;;;;;;4784374;30;20028;-78
2020/12/22 04:07:43;;;;;;;21.17;11.70;;;12.20;99.90;;;;;;4784346;29;20106;-77
2020/12/22 04:10:09;;;;;;;23.60;12.95;;;12.20;99.90;;;;;;4784457;30;20032;-78
2020/12/22 04:12:36;;;;;;;18.40;10.45;;;12.20;99.90;;;;;;4784960;30;20066;-78
2020/12/22 04:15:04;;;;;;;24.05;13.18;;;12.20;99.90;;;;;;4784246;30;20087;-78
2020/12/22 04:17:30;;;;;;;24.63;13.95;;;12.20;99.90;;;;;;4785073;29;20090;-78
2020/12/22 04:19:56;;;;;;;25.77;13.43;;;12.20;99.90;;;;;;4783110;30;20407;-78
2020/12/22 04:22:22;;;;;;;27.42;13.23;;;12.20;99.90;;;;;;4784801;29;20038;-76
2020/12/22 04:24:48;;;;;;;23.88;12.93;;;12.20;99.90;;;;;;4784355;29;20032;-77
2020/12/22 04:27:14;;;;;;;19.33;11.60;;;12.10;99.90;;;;;;4784396;30;20039;-78
2020/12/22 04:29:40;;;;;;;29.58;12.32;;;12.10;99.90;;;;;;4768323;30;20042;-77
2020/12/22 04:32:06;;;;;;;17.48;11.23;;;12.00;99.90;;;;;;4779793;29;20071;-75
2020/12/22 04:34:32;;;;;;;19.15;11.35;;;11.90;99.90;;;;;;4792591;29;20033;-76
2020/12/22 04:36:58;;;;;;;22.85;13.38;;;11.90;99.90;;;;;;4791330;29;20474;-77
2020/12/22 04:39:25;;;;;;;20.40;12.40;;;11.80;99.90;;;;;;4776637;29;20519;-77
2020/12/22 04:41:51;;;;;;;24.40;13.75;;;11.80;99.90;;;;;;4775873;30;20027;-76
2020/12/22 04:44:18;;;;;;;27.63;14.38;;;11.70;99.90;;;;;;4773203;29;20031;-78
2020/12/22 04:46:50;;;;;;;25.02;14.73;;;11.60;99.90;;;;;;4772527;30;20024;-75
2020/12/22 04:49:21;;;;;;;25.25;13.98;;;11.60;99.90;;;;;;4756022;30;20119;-75
2020/12/22 04:51:51;;;;;;;28.65;15.90;;;11.70;99.90;;;;;;4770206;30;20023;-76
2020/12/22 04:54:21;;;;;;;28.75;17.35;;;11.70;99.90;;;;;;4771279;30;20039;-77
2020/12/22 04:56:47;;;;;;;32.80;17.73;;;11.70;99.90;;;;;;4769599;30;20044;-75
2020/12/22 04:59:16;;;;;;;27.95;16.13;;;11.80;99.90;;;;;;4756580;30;20036;-75
2020/12/22 05:01:42;;;;;;;27.30;15.25;;;11.80;99.90;;;;;;4771240;30;20035;-76
2020/12/22 05:04:12;;;;;;;24.63;14.45;;;11.80;99.90;;;;;;4772141;30;20407;-77
2020/12/22 05:06:41;;;;;;;29.40;14.40;;;11.80;99.90;;;;;;4758857;30;20508;-76
2020/12/22 05:09:08;;;;;;;25.83;14.30;;;11.70;99.90;;;;;;4775633;29;20032;-76
2020/12/22 05:11:35;;;;;;;25.88;14.95;;;11.70;99.90;;;;;;4777662;30;20533;-75
2020/12/22 05:14:01;;;;;;;25.98;14.85;;;11.70;99.90;;;;;;4776537;30;20028;-75
2020/12/22 05:16:28;;;;;;;26.77;14.35;;;11.60;99.90;;;;;;4758951;30;20392;-76
2020/12/22 05:18:57;;;;;;;23.80;14.63;;;11.50;99.90;;;;;;4775374;30;20479;-76
2020/12/22 05:21:23;;;;;;;24.17;14.75;;;11.40;99.90;;;;;;4760117;30;20042;-77
2020/12/22 05:23:50;;;;;;;24.23;13.60;;;11.40;99.90;;;;;;4776444;30;20479;-76
2020/12/22 05:26:23;;;;;;;21.80;12.60;;;11.30;99.90;;;;;;4781069;30;20114;-76
2020/12/22 05:28:49;;;;;;;25.48;14.45;;;11.30;99.90;;;;;;4753866;30;20495;-77
2020/12/22 05:31:16;;;;;;;26.00;13.80;;;11.20;99.90;;;;;;4769474;30;20379;-75
2020/12/22 05:33:44;;;;;;;25.92;13.68;;;11.20;99.90;;;;;;4753753;30;20399;-76
2020/12/22 05:36:11;;;;;;;25.42;13.68;;;11.20;99.90;;;;;;4767822;30;20058;-76
2020/12/22 05:38:38;;;;;;;26.77;13.35;;;11.20;99.90;;;;;;4781481;30;20078;-76
2020/12/22 05:41:06;;;;;;;20.75;12.13;;;11.20;99.90;;;;;;4771202;30;20035;-76
2020/12/22 05:43:42;;;;;;;22.85;12.25;;;11.30;99.90;;;;;;4787214;29;20502;-76
2020/12/22 05:46:09;;;;;;;21.77;12.77;;;11.30;99.90;;;;;;4787265;30;20043;-76
2020/12/22 05:48:36;;;;;;;20.70;12.25;;;11.30;99.90;;;;;;4786836;29;20044;-76
2020/12/22 05:51:07;;;;;;;23.95;12.95;;;11.40;99.90;;;;;;4785641;29;20027;-76
2020/12/22 05:53:38;;;;;;;23.15;12.65;;;11.40;99.90;;;;;;4787263;29;20038;-77
2020/12/22 05:56:15;;;;;;;32.53;14.15;;;11.40;99.90;;;;;;4787292;29;20043;-76
2020/12/22 05:58:41;;;;;;;25.85;12.45;;;11.40;99.90;;;;;;4786586;29;20039;-77
2020/12/22 06:01:11;;;;;;;38.95;12.10;;;11.30;99.90;;;;;;4755841;30;20510;-76
2020/12/22 06:03:38;;;;;;;17.63;11.23;;;11.40;99.90;;;;;;4786543;29;20049;-77
2020/12/22 06:06:07;;;;;;;17.33;10.85;;;11.30;99.90;;;;;;4787694;29;20016;-76
2020/12/22 06:08:33;;;;;;;22.25;11.07;;;11.40;99.90;;;;;;4786674;30;20035;-76
2020/12/22 06:11:02;;;;;;;31.98;12.70;;;11.40;99.90;;;;;;4787224;30;20520;-77
2020/12/22 06:13:30;;;;;;;23.98;13.07;;;11.40;99.90;;;;;;4786604;30;20185;-76
2020/12/22 06:15:57;;;;;;;27.15;15.82;;;11.30;99.90;;;;;;4786482;29;20089;-76
2020/12/22 06:18:23;;;;;;;29.27;15.70;;;11.30;99.90;;;;;;4786295;29;20085;-76
2020/12/22 06:20:49;;;;;;;29.13;15.95;;;11.30;99.90;;;;;;4785922;29;20055;-76
2020/12/22 06:23:19;;;;;;;30.85;16.48;;;11.30;99.90;;;;;;4785083;30;20548;-76
2020/12/22 06:25:45;;;;;;;26.85;14.45;;;11.30;99.90;;;;;;4784799;30;20036;-75
2020/12/22 06:28:43;;;;;;;28.55;16.77;;;11.20;99.90;;;;;;4783992;29;20593;-75
2020/12/22 06:31:32;;;;;;;35.83;18.08;;;11.10;99.90;;;;;;4739763;30;20047;-75
2020/12/22 06:33:58;;;;;;;32.08;16.52;;;11.20;99.90;;;;;;4785942;29;20038;-77
2020/12/22 06:36:24;;;;;;;30.30;15.00;;;11.20;99.90;;;;;;4786471;29;20043;-77
2020/12/22 06:39:01;;;;;;;41.08;18.52;;;11.20;99.90;;;;;;4772336;29;20389;-77
2020/12/22 06:41:45;;;;;;;35.35;19.55;;;11.20;99.90;;;;;;4768262;30;20047;-77
2020/12/22 06:44:17;;;;;;;42.88;19.48;;;11.20;99.90;;;;;;4767921;30;20506;-76
2020/12/22 06:46:57;;;;;;;36.67;19.90;;;11.20;99.90;;;;;;4768401;30;20292;-77
2020/12/22 06:49:54;;;;;;;36.38;18.48;;;11.20;99.90;;;;;;4768085;30;20515;-77
2020/12/22 06:52:30;;;;;;;32.65;18.05;;;11.10;99.90;;;;;;4768527;30;20035;-78
2020/12/22 06:54:56;;;;;;;38.70;19.65;;;11.00;99.90;;;;;;4768260;30;20499;-77
2020/12/22 06:57:50;;;;;;;38.70;21.48;;;11.00;99.90;;;;;;4768119;30;20039;-77
2020/12/22 07:00:29;;;;;;;38.38;20.65;;;11.00;99.90;;;;;;4767940;30;20040;-77
2020/12/22 07:03:16;;;;;;;36.90;20.48;;;10.90;99.90;;;;;;4751857;30;20054;-77
2020/12/22 07:05:45;;;;;;;39.08;20.48;;;11.10;99.90;;;;;;4767963;30;20395;-76
2020/12/22 07:08:19;;;;;;;37.58;20.42;;;11.10;99.90;;;;;;4767891;30;20039;-75
2020/12/22 07:10:50;;;;;;;42.28;20.73;;;11.20;99.90;;;;;;4767478;30;20031;-77
2020/12/22 07:13:18;;;;;;;36.33;19.25;;;11.20;99.90;;;;;;4767608;30;20042;-77
2020/12/22 07:15:45;;;;;;;40.50;21.15;;;11.30;99.90;;;;;;4767672;30;20075;-77
2020/12/22 07:18:14;;;;;;;40.92;21.65;;;11.30;99.90;;;;;;4751482;30;20126;-77
2020/12/22 07:20:42;;;;;;;39.15;20.63;;;11.40;99.90;;;;;;4767546;30;20050;-76
2020/12/22 07:23:12;;;;;;;37.38;20.50;;;11.50;99.90;;;;;;4767886;30;20464;-77
2020/12/22 07:25:40;;;;;;;39.70;20.25;;;11.50;99.90;;;;;;4767472;30;20478;-77
2020/12/22 07:28:08;;;;;;;39.15;21.52;;;11.70;99.90;;;;;;4767666;30;20034;-76
2020/12/22 07:30:34;;;;;;;37.35;20.63;;;11.70;99.90;;;;;;4751151;30;20039;-76
2020/12/22 07:33:01;;;;;;;38.67;20.67;;;11.80;99.90;;;;;;4766027;30;20039;-76
2020/12/22 07:35:28;;;;;;;34.88;20.13;;;11.80;99.90;;;;;;4754536;30;20446;-75
2020/12/22 07:38:09;;;;;;;37.53;21.27;;;11.90;99.90;;;;;;4757573;30;20051;-77
2020/12/22 07:40:39;;;;;;;37.83;19.83;;;12.00;99.90;;;;;;4768674;30;20100;-75
2020/12/22 07:43:10;;;;;;;33.80;19.67;;;12.10;99.90;;;;;;4785244;29;20487;-76
2020/12/22 07:45:46;;;;;;;34.08;19.02;;;12.10;99.90;;;;;;4784955;29;20506;-75
2020/12/22 07:48:11;;;;;;;35.72;19.65;;;12.20;99.90;;;;;;4784741;29;20059;-76
2020/12/22 07:50:38;;;;;;;37.08;20.42;;;12.30;99.90;;;;;;4768931;30;20059;-77
2020/12/22 07:53:03;;;;;;;40.78;22.00;;;12.30;99.90;;;;;;4785074;29;20372;-75
2020/12/22 07:55:37;;;;;;;36.88;19.52;;;12.30;99.90;;;;;;4769314;30;20047;-76
2020/12/22 07:58:04;;;;;;;36.55;21.70;;;12.40;99.90;;;;;;4785076;29;20039;-76
2020/12/22 08:00:31;;;;;;;40.25;21.08;;;12.50;99.90;;;;;;4783648;29;20039;-77
2020/12/22 08:02:57;;;;;;;46.85;22.17;;;12.50;99.90;;;;;;4784596;29;20089;-77
2020/12/22 08:05:23;;;;;;;39.42;21.95;;;12.60;99.90;;;;;;4785033;29;20031;-77
2020/12/22 08:07:52;;;;;;;35.00;20.15;;;12.70;99.90;;;;;;4784855;29;20085;-77
2020/12/22 08:10:19;;;;;;;39.85;23.25;;;12.70;99.90;;;;;;4784721;30;20027;-77
2020/12/22 08:12:53;;;;;;;36.88;20.30;;;12.80;99.90;;;;;;4784366;29;20532;-76
2020/12/22 08:15:19;;;;;;;42.03;21.80;;;12.90;99.90;;;;;;4784893;29;20097;-77
2020/12/22 08:17:49;;;;;;;36.63;19.88;;;12.90;99.90;;;;;;4784714;30;20039;-77
2020/12/22 08:20:15;;;;;;;37.13;20.33;;;12.90;99.90;;;;;;4784743;30;20368;-77
2020/12/22 08:22:42;;;;;;;31.35;18.55;;;12.90;99.90;;;;;;4783009;30;20062;-76
2020/12/22 08:25:09;;;;;;;38.00;19.63;;;13.00;99.90;;;;;;4784239;29;20499;-76
2020/12/22 08:27:37;;;;;;;33.55;18.88;;;13.00;99.90;;;;;;4784697;29;20118;-76
2020/12/22 08:30:23;;;;;;;32.25;17.05;;;13.10;99.90;;;;;;4784758;29;20031;-76
2020/12/22 08:32:49;;;;;;;25.17;15.65;;;13.20;99.90;;;;;;4783822;29;20033;-76
2020/12/22 08:35:20;;;;;;;25.30;16.10;;;13.20;99.90;;;;;;4783662;29;20444;-76
2020/12/22 08:37:46;;;;;;;23.90;14.30;;;13.30;99.90;;;;;;4784448;29;20067;-76
2020/12/22 08:40:28;;;;;;;21.85;13.10;;;13.50;99.90;;;;;;4784585;30;20155;-76
2020/12/22 08:42:54;;;;;;;18.63;12.57;;;13.60;99.90;;;;;;4783704;30;20475;-77
2020/12/22 08:45:20;;;;;;;20.95;13.20;;;13.70;99.90;;;;;;4786914;29;20059;-76
2020/12/22 08:47:51;;;;;;;23.92;15.05;;;13.70;99.90;;;;;;4772218;30;20042;-77
2020/12/22 08:50:18;;;;;;;17.00;10.52;;;13.80;99.90;;;;;;4757098;30;20036;-75
2020/12/22 08:52:44;;;;;;;17.00;10.95;;;13.90;99.90;;;;;;4787645;30;20038;-76
2020/12/22 08:55:10;;;;;;;22.75;12.52;;;13.90;99.90;;;;;;4768290;30;20035;-76
2020/12/22 08:57:36;;;;;;;22.73;13.20;;;14.00;99.90;;;;;;4754536;30;20082;-76
2020/12/22 09:00:17;;;;;;;39.33;15.35;;;14.10;99.90;;;;;;4769999;30;20036;-76
2020/12/22 09:02:52;;;;;;;32.30;14.93;;;14.10;99.90;;;;;;4781038;29;20040;-76
2020/12/22 09:05:19;;;;;;;23.83;12.15;;;14.20;99.90;;;;;;4787854;29;20035;-76
2020/12/22 09:07:45;;;;;;;24.45;12.63;;;14.20;99.90;;;;;;4787858;29;20055;-77
2020/12/22 09:10:11;;;;;;;24.55;13.93;;;14.30;99.90;;;;;;4771756;29;20089;-76
2020/12/22 09:12:38;;;;;;;18.73;11.57;;;14.30;99.90;;;;;;4786895;30;20102;-76
2020/12/22 09:15:08;;;;;;;15.02;9.07;;;14.40;99.90;;;;;;4787610;30;20494;-77
2020/12/22 09:17:38;;;;;;;17.90;10.63;;;14.40;99.90;;;;;;4787757;30;20166;-77
2020/12/22 09:20:05;;;;;;;20.02;12.32;;;14.30;99.90;;;;;;4787663;29;20023;-76
2020/12/22 09:22:33;;;;;;;27.73;12.50;;;14.50;99.90;;;;;;4786433;30;20067;-76
2020/12/22 09:25:02;;;;;;;27.45;13.25;;;14.70;99.90;;;;;;4787486;29;20103;-77
2020/12/22 09:27:36;;;;;;;16.60;9.55;;;14.70;99.90;;;;;;4787441;29;20418;-78
2020/12/22 09:30:13;;;;;;;15.32;7.70;;;14.60;99.90;;;;;;4787241;30;20102;-77
2020/12/22 09:32:41;;;;;;;10.82;6.38;;;14.60;99.90;;;;;;4787163;29;20398;-76
2020/12/22 09:35:07;;;;;;;9.70;6.90;;;14.60;99.90;;;;;;4786487;30;20087;-77
2020/12/22 09:37:37;;;;;;;17.05;9.32;;;14.50;99.90;;;;;;4784216;30;20500;-75
2020/12/22 09:40:04;;;;;;;12.63;7.65;;;14.50;99.90;;;;;;4768214;30;20102;-76
2020/12/22 09:42:31;;;;;;;16.70;9.57;;;14.70;99.90;;;;;;4778503;29;20123;-76
2020/12/22 09:45:00;;;;;;;20.30;9.98;;;14.80;99.90;;;;;;4797172;29;20440;-77
2020/12/22 09:47:26;;;;;;;12.18;7.60;;;15.10;99.90;;;;;;4791083;29;20027;-76
2020/12/22 09:49:52;;;;;;;16.95;9.20;;;15.00;99.90;;;;;;4793080;29;20032;-76
2020/12/22 09:52:18;;;;;;;13.23;7.97;;;15.20;99.90;;;;;;4793507;29;20027;-75
2020/12/22 09:54:45;;;;;;;16.48;9.90;;;15.30;99.90;;;;;;4789281;29;20092;-77
2020/12/22 09:57:11;;;;;;;13.65;7.85;;;15.50;99.90;;;;;;4780394;29;20474;-76
2020/12/22 09:59:38;;;;;;;14.43;8.43;;;15.60;99.90;;;;;;4803461;29;20110;-77
2020/12/22 10:02:04;;;;;;;12.55;7.65;;;15.70;99.90;;;;;;4804888;29;20042;-77
2020/12/22 10:04:33;;;;;;;15.90;8.05;;;15.70;99.90;;;;;;4778516;30;20039;-76
2020/12/22 10:07:03;;;;;;;13.75;7.93;;;15.70;99.90;;;;;;4786920;30;20043;-77
2020/12/22 10:09:29;;;;;;;13.70;7.07;;;15.80;99.90;;;;;;4770835;30;20088;-76
2020/12/22 10:11:58;;;;;;;11.75;7.88;;;15.90;99.90;;;;;;4786614;30;20507;-77
2020/12/22 10:14:24;;;;;;;13.85;8.13;;;15.70;99.90;;;;;;4779377;30;20521;-76
2020/12/22 10:16:51;;;;;;;14.20;8.00;;;15.70;99.90;;;;;;4779943;30;20039;-77
2020/12/22 10:19:17;;;;;;;13.98;7.68;;;15.70;99.90;;;;;;4771075;30;20028;-78
2020/12/22 10:21:43;;;;;;;13.13;7.20;;;15.90;99.90;;;;;;4767658;30;20105;-77
2020/12/22 10:24:10;;;;;;;14.75;7.40;;;16.10;99.90;;;;;;4754197;30;20035;-77
2020/12/22 10:26:36;;;;;;;10.85;6.97;;;16.30;99.90;;;;;;4786320;29;20067;-77
2020/12/22 10:29:03;;;;;;;12.65;8.55;;;16.40;99.90;;;;;;4781740;29;20042;-76
2020/12/22 10:31:29;;;;;;;13.45;7.70;;;16.80;99.90;;;;;;4789672;29;20039;-77
2020/12/22 10:33:57;;;;;;;13.60;7.53;;;17.20;99.90;;;;;;4794124;29;20463;-77
2020/12/22 10:36:25;;;;;;;12.25;7.53;;;17.50;99.90;;;;;;4792138;29;20039;-76
2020/12/22 10:38:54;;;;;;;12.55;7.00;;;17.50;99.90;;;;;;4796129;29;20529;-77
2020/12/22 10:41:21;;;;;;;9.95;6.00;;;17.80;99.90;;;;;;4788905;29;20513;-76
2020/12/22 10:43:48;;;;;;;10.73;6.90;;;17.50;99.90;;;;;;4795248;29;20539;-77
2020/12/22 10:46:15;;;;;;;14.57;8.63;;;17.30;99.90;;;;;;4791855;29;20118;-77
2020/12/22 10:48:43;;;;;;;12.65;8.45;;;16.80;99.90;;;;;;4791423;29;20070;-77
2020/12/22 10:51:12;;;;;;;17.48;10.05;;;16.70;99.90;;;;;;4790938;29;20462;-77
2020/12/22 10:53:39;;;;;;;20.50;11.10;;;17.00;99.90;;;;;;4775548;29;20398;-77
2020/12/22 10:56:09;;;;;;;23.00;13.85;;;17.00;99.90;;;;;;4785712;29;20444;-77
2020/12/22 10:58:37;;;;;;;24.15;14.23;;;16.40;99.90;;;;;;4795519;29;20038;-75
2020/12/22 11:01:06;;;;;;;20.70;12.50;;;16.30;99.90;;;;;;4792792;29;20073;-77
2020/12/22 11:03:33;;;;;;;22.92;12.98;;;16.10;99.90;;;;;;4791696;29;20041;-76
2020/12/22 11:06:20;;;;;;;19.40;11.20;;;16.00;99.90;;;;;;4788792;29;20100;-78
2020/12/22 11:08:48;;;;;;;23.65;12.57;;;16.30;99.90;;;;;;4787859;29;20402;-77
2020/12/22 11:11:14;;;;;;;26.20;13.82;;;16.60;99.90;;;;;;4785435;29;20030;-76
2020/12/22 11:13:41;;;;;;;21.27;12.98;;;16.60;99.90;;;;;;4793060;29;20058;-76
2020/12/22 11:16:07;;;;;;;15.07;10.93;;;16.70;99.90;;;;;;4771978;29;20031;-77
2020/12/22 11:18:38;;;;;;;15.13;10.07;;;16.80;99.90;;;;;;4781784;29;20139;-76
2020/12/22 11:21:13;;;;;;;14.55;8.55;;;17.10;99.90;;;;;;4790914;29;20469;-77
2020/12/22 11:23:39;;;;;;;15.40;9.25;;;17.20;99.90;;;;;;4787171;29;20031;-77
2020/12/22 11:26:10;;;;;;;17.83;9.60;;;17.40;99.90;;;;;;4788162;29;20031;-79
2020/12/22 11:28:36;;;;;;;29.75;11.18;;;17.80;99.90;;;;;;4791198;29;20035;-77
2020/12/22 11:31:02;;;;;;;13.90;7.75;;;18.10;99.90;;;;;;4789180;29;20088;-77
2020/12/22 11:33:28;;;;;;;11.38;6.75;;;18.10;99.90;;;;;;4787177;29;20039;-77
2020/12/22 11:35:54;;;;;;;10.48;6.45;;;18.00;99.90;;;;;;4795725;29;20516;-78
2020/12/22 11:38:20;;;;;;;18.48;6.80;;;17.60;99.90;;;;;;4789297;29;20051;-78
2020/12/22 11:40:46;;;;;;;11.30;6.55;;;17.60;99.90;;;;;;4778036;29;20594;-78
2020/12/22 11:43:12;;;;;;;9.98;6.60;;;18.00;99.90;;;;;;4791293;29;20437;-79
2020/12/22 11:45:39;;;;;;;9.00;5.88;;;18.10;99.90;;;;;;4792503;29;20040;-77
2020/12/22 11:48:05;;;;;;;10.60;6.72;;;18.50;99.90;;;;;;4773382;29;20497;-77
2020/12/22 11:50:31;;;;;;;9.13;6.03;;;18.80;99.90;;;;;;4789000;29;20041;-78
2020/12/22 11:52:57;;;;;;;14.52;7.47;;;19.10;99.90;;;;;;4788764;29;20027;-79
2020/12/22 11:55:25;;;;;;;13.20;8.45;;;19.30;99.90;;;;;;4792735;29;20031;-79
2020/12/22 11:57:51;;;;;;;10.55;7.43;;;19.00;99.90;;;;;;4788876;29;20043;-77
2020/12/22 12:00:17;;;;;;;13.40;7.40;;;19.00;99.90;;;;;;4790384;29;20453;-78
2020/12/22 12:02:43;;;;;;;12.05;7.03;;;19.30;99.90;;;;;;4775481;29;20057;-77
2020/12/22 12:05:09;;;;;;;10.15;6.65;;;19.50;99.90;;;;;;4792409;29;20042;-78
2020/12/22 12:07:35;;;;;;;8.77;6.30;;;19.80;99.90;;;;;;4792851;29;20110;-77
2020/12/22 12:10:02;;;;;;;11.27;6.47;;;20.00;99.90;;;;;;4790362;29;20443;-78
2020/12/22 12:12:29;;;;;;;10.65;6.45;;;20.30;99.90;;;;;;4787922;29;20039;-77
2020/12/22 12:15:07;;;;;;;11.30;6.72;;;20.50;99.90;;;;;;4769680;29;20039;-77
2020/12/22 12:17:33;;;;;;;10.38;6.15;;;20.60;99.90;;;;;;4790452;29;20510;-77
2020/12/22 12:19:59;;;;;;;10.48;6.38;;;20.70;99.90;;;;;;4788902;29;21002;-78
2020/12/22 12:22:26;;;;;;;13.38;7.75;;;20.80;99.90;;;;;;4784394;29;20111;-78
2020/12/22 12:24:52;;;;;;;10.10;7.20;;;20.80;99.90;;;;;;4790143;29;20518;-77
2020/12/22 12:27:18;;;;;;;11.63;6.85;;;20.10;99.90;;;;;;4789754;29;20034;-77
2020/12/22 12:29:44;;;;;;;10.10;6.28;;;19.60;99.90;;;;;;4787550;29;20573;-77
2020/12/22 12:32:10;;;;;;;10.93;5.77;;;19.00;99.90;;;;;;4789051;29;20106;-78